createdAt,value
2019-02-14T00:00:54.129Z,19.87
2019-02-14T00:03:23.987Z,18.20
2019-02-14T00:05:53.953Z,19.90
2019-02-14T00:08:24.374Z,19.83
2019-02-14T00:10:55.041Z,19.30
2019-02-14T00:13:24.981Z,18.77
2019-02-14T00:15:55.301Z,20.13
2019-02-14T00:18:25.340Z,26.07
2019-02-14T00:20:55.761Z,24.00
2019-02-14T00:23:25.939Z,20.30
2019-02-14T00:25:56.426Z,21.43
2019-02-14T00:28:27.616Z,19.80
2019-02-14T00:30:57.640Z,20.03
2019-02-14T00:33:27.804Z,18.90
2019-02-14T00:35:57.831Z,17.17
2019-02-14T00:38:28.147Z,16.83
2019-02-14T00:40:58.471Z,15.67
2019-02-14T00:43:28.760Z,17.60
2019-02-14T00:45:58.699Z,17.17
2019-02-14T00:48:28.855Z,18.07
2019-02-14T00:50:59.081Z,16.77
2019-02-14T00:53:29.816Z,19.57
2019-02-14T00:55:59.976Z,21.37
2019-02-14T00:58:30.306Z,19.53
2019-02-14T01:01:00.432Z,20.27
2019-02-14T01:03:31.673Z,19.93
2019-02-14T01:06:01.753Z,18.50
2019-02-14T01:08:31.758Z,18.63
2019-02-14T01:11:02.299Z,16.60
2019-02-14T01:13:32.502Z,17.23
2019-02-14T01:16:04.673Z,17.40
2019-02-14T01:18:34.914Z,18.13
2019-02-14T01:21:05.164Z,16.03
2019-02-14T01:23:35.706Z,17.57
2019-02-14T01:26:06.158Z,16.33
2019-02-14T01:28:36.178Z,17.90
2019-02-14T01:31:06.266Z,19.93
2019-02-14T01:33:36.674Z,19.90
2019-02-14T01:36:06.802Z,21.17
2019-02-14T01:38:37.570Z,18.63
2019-02-14T01:41:08.054Z,18.63
2019-02-14T01:43:38.944Z,21.17
2019-02-14T01:46:08.926Z,21.20
2019-02-14T01:48:39.266Z,18.80
2019-02-14T01:51:09.685Z,21.53
2019-02-14T01:53:39.902Z,23.90
2019-02-14T01:56:09.852Z,24.40
2019-02-14T01:58:40.363Z,25.33
2019-02-14T02:01:10.559Z,22.03
2019-02-14T02:03:40.666Z,22.00
2019-02-14T02:06:10.754Z,22.87
2019-02-14T02:08:40.954Z,20.80
2019-02-14T02:11:11.168Z,18.97
2019-02-14T02:13:41.171Z,21.83
2019-02-14T02:16:11.608Z,20.37
2019-02-14T02:18:42.058Z,19.87
2019-02-14T02:21:12.394Z,17.67
2019-02-14T02:23:42.844Z,17.13
2019-02-14T02:26:13.397Z,17.30
2019-02-14T02:28:43.413Z,15.93
2019-02-14T02:31:13.517Z,16.60
2019-02-14T02:33:43.880Z,15.53
2019-02-14T02:36:14.042Z,18.87
2019-02-14T02:38:43.998Z,16.23
2019-02-14T02:41:14.011Z,16.37
2019-02-14T02:43:44.452Z,16.70
2019-02-14T02:46:14.477Z,17.47
2019-02-14T02:48:44.525Z,18.00
2019-02-14T02:51:14.588Z,17.43
2019-02-14T02:53:44.445Z,16.80
2019-02-14T02:56:14.438Z,15.97
2019-02-14T02:58:44.479Z,17.43
2019-02-14T03:01:14.822Z,17.33
2019-02-14T03:03:44.785Z,15.73
2019-02-14T03:06:14.853Z,17.40
2019-02-14T03:08:44.933Z,15.87
2019-02-14T03:11:14.998Z,14.80
2019-02-14T03:13:45.239Z,14.40
2019-02-14T03:16:15.614Z,14.80
2019-02-14T03:18:45.495Z,15.10
2019-02-14T03:21:16.909Z,15.80
2019-02-14T03:23:48.122Z,15.37
2019-02-14T03:26:19.865Z,14.40
2019-02-14T03:28:50.051Z,17.67
2019-02-14T03:31:20.579Z,17.10
2019-02-14T03:33:50.481Z,16.20
2019-02-14T03:36:20.878Z,17.37
2019-02-14T03:38:50.889Z,16.93
2019-02-14T03:41:20.803Z,20.20
2019-02-14T03:43:50.807Z,21.20
2019-02-14T03:46:20.699Z,21.63
2019-02-14T03:48:50.771Z,19.43
2019-02-14T03:51:21.399Z,19.37
2019-02-14T03:53:51.730Z,18.43
2019-02-14T03:56:22.247Z,17.77
2019-02-14T03:58:52.567Z,17.73
2019-02-14T04:01:23.072Z,16.60
2019-02-14T04:03:53.208Z,15.70
2019-02-14T04:06:27.428Z,16.83
2019-02-14T04:08:55.591Z,17.20
2019-02-14T04:11:25.845Z,15.93
2019-02-14T04:13:56.257Z,14.60
2019-02-14T04:16:26.489Z,15.30
2019-02-14T04:18:56.506Z,14.77
2019-02-14T04:21:26.820Z,16.13
2019-02-14T04:23:57.815Z,15.30
2019-02-14T04:26:27.691Z,18.30
2019-02-14T04:28:57.760Z,20.12
2019-02-14T04:31:28.017Z,21.17
2019-02-14T04:33:58.038Z,21.33
2019-02-14T04:36:35.582Z,21.90
2019-02-14T04:39:00.119Z,21.00
2019-02-14T04:41:30.206Z,19.10
2019-02-14T04:44:00.382Z,17.35
2019-02-14T04:46:30.575Z,16.43
2019-02-14T04:49:00.634Z,16.97
2019-02-14T04:51:30.819Z,14.43
2019-02-14T04:54:00.806Z,16.17
2019-02-14T04:56:30.945Z,16.70
2019-02-14T04:59:01.520Z,18.13
2019-02-14T05:01:31.681Z,20.40
2019-02-14T05:04:02.168Z,17.63
2019-02-14T05:06:32.694Z,16.93
2019-02-14T05:09:02.733Z,15.63
2019-02-14T05:11:33.270Z,15.53
2019-02-14T05:14:03.432Z,16.27
2019-02-14T05:16:33.722Z,17.23
2019-02-14T05:19:04.033Z,16.87
2019-02-14T05:21:34.235Z,17.70
2019-02-14T05:24:04.418Z,15.90
2019-02-14T05:26:34.896Z,16.73
2019-02-14T05:29:05.294Z,17.70
2019-02-14T05:31:35.535Z,17.27
2019-02-14T05:34:05.795Z,18.07
2019-02-14T05:36:37.395Z,17.00
2019-02-14T05:39:07.351Z,17.00
2019-02-14T05:41:37.327Z,15.63
2019-02-14T05:44:07.454Z,14.07
2019-02-14T05:46:37.461Z,15.53
2019-02-14T05:49:07.780Z,15.90
2019-02-14T05:51:37.911Z,14.43
2019-02-14T05:54:08.283Z,15.20
2019-02-14T05:56:38.443Z,17.53
2019-02-14T05:59:08.492Z,15.98
2019-02-14T06:01:38.831Z,16.07
2019-02-14T06:04:08.875Z,14.78
2019-02-14T06:06:39.662Z,17.00
2019-02-14T06:09:09.663Z,16.70
2019-02-14T06:11:39.748Z,16.57
2019-02-14T06:14:09.811Z,14.17
2019-02-14T06:16:39.804Z,16.80
2019-02-14T06:19:10.037Z,16.30
2019-02-14T06:21:40.342Z,15.03
2019-02-14T06:24:10.342Z,16.70
2019-02-14T06:26:40.850Z,15.50
2019-02-14T06:29:11.491Z,15.97
2019-02-14T06:31:41.943Z,17.43
2019-02-14T06:34:13.701Z,17.93
2019-02-14T06:36:43.846Z,17.67
2019-02-14T06:39:13.909Z,14.93
2019-02-14T06:41:44.116Z,16.10
2019-02-14T06:44:14.026Z,18.30
2019-02-14T06:46:43.977Z,19.87
2019-02-14T06:49:14.743Z,17.42
2019-02-14T06:51:45.226Z,16.20
2019-02-14T06:54:15.401Z,16.37
2019-02-14T06:56:46.308Z,18.77
2019-02-14T06:59:16.327Z,17.90
2019-02-14T07:01:46.492Z,20.20
2019-02-14T07:04:16.828Z,22.93
2019-02-14T07:06:47.305Z,19.37
2019-02-14T07:09:17.877Z,20.32
2019-02-14T07:11:48.064Z,18.10
2019-02-14T07:14:18.130Z,18.07
2019-02-14T07:16:48.118Z,17.60
2019-02-14T07:19:18.713Z,36.10
2019-02-14T07:21:48.977Z,27.27
2019-02-14T07:24:19.122Z,21.73
2019-02-14T07:26:49.873Z,18.10
2019-02-14T07:29:20.624Z,16.43
2019-02-14T07:31:50.624Z,16.17
2019-02-14T07:34:21.018Z,16.53
2019-02-14T07:36:51.116Z,15.57
2019-02-14T07:39:21.647Z,15.03
2019-02-14T07:41:51.907Z,14.07
2019-02-14T07:44:22.157Z,18.17
2019-02-14T07:46:52.828Z,17.87
2019-02-14T07:49:23.083Z,16.00
2019-02-14T07:51:53.543Z,17.63
2019-02-14T07:54:23.940Z,17.70
2019-02-14T07:56:55.165Z,15.47
2019-02-14T07:59:25.563Z,13.73
2019-02-14T08:01:55.546Z,13.25
2019-02-14T08:04:26.102Z,12.70
2019-02-14T08:06:56.258Z,12.87
2019-02-14T08:09:26.309Z,12.03
2019-02-14T08:11:56.410Z,11.47
2019-02-14T08:14:27.254Z,12.53
2019-02-14T08:16:57.362Z,15.03
2019-02-14T08:19:27.477Z,14.23
2019-02-14T08:21:57.841Z,22.53
2019-02-14T08:24:27.794Z,24.65
2019-02-14T08:26:58.591Z,16.53
2019-02-14T08:29:29.092Z,13.40
2019-02-14T08:31:59.365Z,11.77
2019-02-14T08:34:29.459Z,9.77
2019-02-14T08:36:59.741Z,17.37
2019-02-14T08:39:29.892Z,11.70
2019-02-14T08:42:00.057Z,11.27
2019-02-14T08:44:30.202Z,10.77
2019-02-14T08:47:00.590Z,11.43
2019-02-14T08:49:30.500Z,11.10
2019-02-14T08:52:00.980Z,10.45
2019-02-14T08:54:30.997Z,10.50
2019-02-14T08:57:01.041Z,11.60
2019-02-14T08:59:31.396Z,10.25
2019-02-14T09:02:01.719Z,10.43
2019-02-14T09:04:31.746Z,9.75
2019-02-14T09:07:02.067Z,9.63
2019-02-14T09:09:32.271Z,11.57
2019-02-14T09:12:02.374Z,9.80
2019-02-14T09:14:32.781Z,9.85
2019-02-14T09:17:02.798Z,9.28
2019-02-14T09:19:33.253Z,10.55
2019-02-14T09:22:03.282Z,9.33
2019-02-14T09:24:33.571Z,10.82
2019-02-14T09:27:03.681Z,9.93
2019-02-14T09:29:34.395Z,8.67
2019-02-14T09:32:04.408Z,9.73
2019-02-14T09:34:34.309Z,9.10
2019-02-14T09:37:05.021Z,9.73
2019-02-14T09:39:40.788Z,9.17
2019-02-14T09:42:07.248Z,9.97
2019-02-14T09:44:37.188Z,8.68
2019-02-14T09:47:07.922Z,8.33
2019-02-14T09:49:38.025Z,8.45
2019-02-14T09:52:09.303Z,9.18
2019-02-14T09:54:39.630Z,8.27
2019-02-14T09:57:09.604Z,7.55
2019-02-14T09:59:39.692Z,7.62
2019-02-14T10:02:09.771Z,8.05
2019-02-14T10:04:39.840Z,8.68
2019-02-14T10:07:10.027Z,8.50
2019-02-14T10:09:40.490Z,8.80
2019-02-14T10:12:10.518Z,8.65
2019-02-14T10:14:40.744Z,8.40
2019-02-14T10:17:10.871Z,8.88
2019-02-14T10:19:41.697Z,8.20
2019-02-14T10:22:12.507Z,8.57
2019-02-14T10:24:43.002Z,8.18
2019-02-14T10:27:13.856Z,7.72
2019-02-14T10:29:43.843Z,8.73
2019-02-14T10:32:13.754Z,7.67
2019-02-14T10:34:44.551Z,8.13
2019-02-14T10:37:14.764Z,8.35
2019-02-14T10:39:44.869Z,7.97
2019-02-14T10:42:14.855Z,8.23
2019-02-14T10:44:44.940Z,8.40
2019-02-14T10:47:15.070Z,7.55
2019-02-14T10:49:45.064Z,8.83
2019-02-14T10:52:15.433Z,8.08
2019-02-14T10:54:45.531Z,8.25
2019-02-14T10:57:15.483Z,8.70
2019-02-14T10:59:45.412Z,8.95
2019-02-14T11:02:15.857Z,9.25
2019-02-14T11:04:47.105Z,8.90
2019-02-14T11:07:17.226Z,8.78
2019-02-14T11:09:47.630Z,8.23
2019-02-14T11:12:17.905Z,10.80
2019-02-14T11:14:47.895Z,9.97
2019-02-14T11:17:18.013Z,9.60
2019-02-14T11:19:48.537Z,11.30
2019-02-14T11:22:18.488Z,10.03
2019-02-14T11:24:48.505Z,10.53
2019-02-14T11:27:18.821Z,10.40
2019-02-14T11:29:49.195Z,10.73
2019-02-14T11:32:20.269Z,10.27
2019-02-14T11:34:50.732Z,11.00
2019-02-14T11:37:20.794Z,9.73
2019-02-14T11:39:51.214Z,10.70
2019-02-14T11:42:21.950Z,10.57
2019-02-14T11:44:52.181Z,10.77
2019-02-14T11:47:22.274Z,11.07
2019-02-14T11:49:52.364Z,10.70
2019-02-14T11:52:22.670Z,10.57
2019-02-14T11:54:53.480Z,10.40
2019-02-14T11:57:23.459Z,10.80
2019-02-14T11:59:53.454Z,10.80
2019-02-14T12:02:23.746Z,10.60
2019-02-14T12:04:53.817Z,10.63
2019-02-14T12:07:24.112Z,10.57
2019-02-14T12:09:54.483Z,11.03
2019-02-14T12:12:25.829Z,9.90
2019-02-14T12:14:56.241Z,10.93
2019-02-14T12:17:29.233Z,9.60
2019-02-14T12:19:59.391Z,10.37
2019-02-14T12:22:29.788Z,10.13
2019-02-14T12:24:59.923Z,11.10
2019-02-14T12:27:30.047Z,10.93
2019-02-14T12:30:00.264Z,11.30
2019-02-14T12:32:30.595Z,10.80
2019-02-14T12:35:00.565Z,10.77
2019-02-14T12:37:30.967Z,11.60
2019-02-14T12:40:01.535Z,10.60
2019-02-14T12:42:32.168Z,9.60
2019-02-14T12:45:02.174Z,10.47
2019-02-14T12:47:32.829Z,10.33
2019-02-14T12:50:02.775Z,9.03
2019-02-14T12:52:33.156Z,10.17
2019-02-14T12:55:03.299Z,10.20
2019-02-14T12:57:34.173Z,9.17
2019-02-14T13:00:04.981Z,8.43
2019-02-14T13:02:35.558Z,9.00
2019-02-14T13:05:06.529Z,8.77
2019-02-14T13:07:36.561Z,8.80
2019-02-14T13:10:08.153Z,9.20
2019-02-14T13:12:38.432Z,8.47
2019-02-14T13:15:11.266Z,9.10
2019-02-14T13:17:41.641Z,8.50
2019-02-14T13:20:11.904Z,8.27
2019-02-14T13:22:41.953Z,7.53
2019-02-14T13:25:12.758Z,8.20
2019-02-14T13:27:43.185Z,7.20
2019-02-14T13:30:18.450Z,8.50
2019-02-14T13:32:48.605Z,8.83
2019-02-14T13:35:18.779Z,8.87
2019-02-14T13:37:49.054Z,8.23
2019-02-14T13:40:19.163Z,8.40
2019-02-14T13:42:49.245Z,8.40
2019-02-14T13:45:21.450Z,7.50
2019-02-14T13:47:51.625Z,8.83
2019-02-14T13:50:22.143Z,8.60
2019-02-14T13:52:52.662Z,8.80
2019-02-14T13:55:22.731Z,7.53
2019-02-14T13:57:53.004Z,8.00
2019-02-14T14:00:25.448Z,8.53
2019-02-14T14:02:55.431Z,7.80
2019-02-14T14:05:25.560Z,7.67
2019-02-14T14:07:56.812Z,8.33
2019-02-14T14:10:27.102Z,7.80
2019-02-14T14:12:57.165Z,8.50
2019-02-14T14:15:27.363Z,8.93
2019-02-14T14:17:57.309Z,7.93
2019-02-14T14:20:27.267Z,7.87
2019-02-14T14:22:57.856Z,9.63
2019-02-14T14:25:27.950Z,8.37
2019-02-14T14:27:57.964Z,8.35
2019-02-14T14:30:28.187Z,9.00
2019-02-14T14:32:58.261Z,8.50
2019-02-14T14:35:28.189Z,8.47
2019-02-14T14:37:58.308Z,8.97
2019-02-14T14:40:28.723Z,9.57
2019-02-14T14:43:17.779Z,9.50
2019-02-14T14:46:06.333Z,8.93
2019-02-14T14:48:39.363Z,9.17
2019-02-14T14:51:09.711Z,9.77
2019-02-14T14:53:41.094Z,10.03
2019-02-14T14:56:11.327Z,11.17
2019-02-14T14:58:43.392Z,14.83
2019-02-14T15:01:13.505Z,12.83
2019-02-14T15:03:43.570Z,10.83
2019-02-14T15:06:13.582Z,10.07
2019-02-14T15:08:44.213Z,10.07
2019-02-14T15:11:14.347Z,9.97
2019-02-14T15:13:44.345Z,9.13
2019-02-14T15:16:14.358Z,9.30
2019-02-14T15:18:44.536Z,8.80
2019-02-14T15:21:14.557Z,7.93
2019-02-14T15:23:44.532Z,8.17
2019-02-14T15:26:14.463Z,8.67
2019-02-14T15:28:45.265Z,7.83
2019-02-14T15:31:15.434Z,8.73
2019-02-14T15:33:46.457Z,9.27
2019-02-14T15:36:16.424Z,9.43
2019-02-14T15:38:46.794Z,10.10
2019-02-14T15:41:17.064Z,9.33
2019-02-14T15:43:47.063Z,8.70
2019-02-14T15:46:17.107Z,10.73
2019-02-14T15:48:47.678Z,10.03
2019-02-14T15:51:19.817Z,9.30
2019-02-14T15:53:49.583Z,9.73
2019-02-14T15:56:19.697Z,9.67
2019-02-14T15:58:49.742Z,11.17
2019-02-14T16:01:19.709Z,9.87
2019-02-14T16:03:49.829Z,11.53
2019-02-14T16:06:19.913Z,12.00
2019-02-14T16:08:50.603Z,13.70
2019-02-14T16:11:20.730Z,12.47
2019-02-14T16:13:50.714Z,12.57
2019-02-14T16:16:22.591Z,11.37
2019-02-14T16:18:52.479Z,11.80
2019-02-14T16:21:22.598Z,12.30
2019-02-14T16:23:53.135Z,11.77
2019-02-14T16:26:24.719Z,12.27
2019-02-14T16:28:54.747Z,10.83
2019-02-14T16:31:24.945Z,10.53
2019-02-14T16:33:55.049Z,12.00
2019-02-14T16:36:24.957Z,11.97
2019-02-14T16:38:56.419Z,11.17
2019-02-14T16:41:26.551Z,12.20
2019-02-14T16:43:56.742Z,12.97
2019-02-14T16:46:26.691Z,15.50
2019-02-14T16:48:57.121Z,14.70
2019-02-14T16:51:27.949Z,15.17
2019-02-14T16:53:58.274Z,13.53
2019-02-14T16:56:31.334Z,12.83
2019-02-14T16:59:01.381Z,11.20
2019-02-14T17:01:32.122Z,11.37
2019-02-14T17:04:02.550Z,13.40
2019-02-14T17:06:32.776Z,12.23
2019-02-14T17:09:04.454Z,12.43
2019-02-14T17:11:34.555Z,13.63
2019-02-14T17:14:04.690Z,12.87
2019-02-14T17:16:34.652Z,11.03
2019-02-14T17:19:04.805Z,11.50
2019-02-14T17:21:34.807Z,10.33
2019-02-14T17:24:04.904Z,11.33
2019-02-14T17:26:34.967Z,13.60
2019-02-14T17:29:05.464Z,13.30
2019-02-14T17:31:36.225Z,11.57
2019-02-14T17:34:06.107Z,11.60
2019-02-14T17:36:36.859Z,11.80
2019-02-14T17:39:07.989Z,11.60
2019-02-14T17:41:37.924Z,10.37
2019-02-14T17:44:07.893Z,10.90
2019-02-14T17:46:38.464Z,12.83
2019-02-14T17:49:09.065Z,16.90
2019-02-14T17:51:39.578Z,18.67
2019-02-14T17:54:09.623Z,16.30
2019-02-14T17:56:39.887Z,14.13
2019-02-14T17:59:09.915Z,13.33
2019-02-14T18:01:40.306Z,13.93
2019-02-14T18:04:10.735Z,16.53
2019-02-14T18:06:40.868Z,14.40
2019-02-14T18:09:11.177Z,16.20
2019-02-14T18:11:41.022Z,15.60
2019-02-14T18:14:11.096Z,17.87
2019-02-14T18:16:41.041Z,16.93
2019-02-14T18:19:11.405Z,15.27
2019-02-14T18:21:41.774Z,14.43
2019-02-14T18:24:12.109Z,13.73
2019-02-14T18:26:42.400Z,17.67
2019-02-14T18:29:12.514Z,19.80
2019-02-14T18:31:42.818Z,20.67
2019-02-14T18:34:13.252Z,20.67
2019-02-14T18:36:43.616Z,18.43
2019-02-14T18:39:14.520Z,18.73
2019-02-14T18:41:44.520Z,17.63
2019-02-14T18:44:14.961Z,17.67
2019-02-14T18:46:45.335Z,17.40
2019-02-14T18:49:15.272Z,16.47
2019-02-14T18:51:45.377Z,16.50
2019-02-14T18:54:15.522Z,16.50
2019-02-14T18:56:46.050Z,15.63
2019-02-14T18:59:16.062Z,16.00
2019-02-14T19:01:46.168Z,14.57
2019-02-14T19:04:16.328Z,14.50
2019-02-14T19:06:45.961Z,14.13
2019-02-14T19:09:16.238Z,12.30
2019-02-14T19:11:46.207Z,13.57
2019-02-14T19:14:16.054Z,14.87
2019-02-14T19:16:46.222Z,14.77
2019-02-14T19:19:16.500Z,14.80
2019-02-14T19:21:46.629Z,14.17
2019-02-14T19:24:18.669Z,13.07
2019-02-14T19:26:49.256Z,13.87
2019-02-14T19:29:19.535Z,11.90
2019-02-14T19:31:49.701Z,13.07
2019-02-14T19:34:19.873Z,14.57
2019-02-14T19:36:50.105Z,13.73
2019-02-14T19:39:20.009Z,12.27
2019-02-14T19:41:51.110Z,11.83
2019-02-14T19:44:21.502Z,13.23
2019-02-14T19:46:51.947Z,12.07
2019-02-14T19:49:21.793Z,12.93
2019-02-14T19:51:52.051Z,13.33
2019-02-14T19:54:22.415Z,12.30
2019-02-14T19:56:52.926Z,11.80
2019-02-14T19:59:22.830Z,13.97
2019-02-14T20:01:52.789Z,16.63
2019-02-14T20:04:23.488Z,15.43
2019-02-14T20:06:53.687Z,16.50
2019-02-14T20:09:24.280Z,14.77
2019-02-14T20:11:54.502Z,13.83
2019-02-14T20:14:24.510Z,13.90
2019-02-14T20:16:54.858Z,14.20
2019-02-14T20:19:25.572Z,13.50
2019-02-14T20:21:56.597Z,14.13
2019-02-14T20:24:26.868Z,15.23
2019-02-14T20:26:57.348Z,15.00
2019-02-14T20:29:27.552Z,14.63
2019-02-14T20:31:57.607Z,14.27
2019-02-14T20:34:28.191Z,14.33
2019-02-14T20:36:58.273Z,16.73
2019-02-14T20:39:28.503Z,14.60
2019-02-14T20:41:58.659Z,14.67
2019-02-14T20:44:28.628Z,13.83
2019-02-14T20:47:00.870Z,15.47
2019-02-14T20:49:30.827Z,14.60
2019-02-14T20:52:00.756Z,15.00
2019-02-14T20:54:30.891Z,14.57
2019-02-14T20:57:01.138Z,14.33
2019-02-14T20:59:31.585Z,13.93
2019-02-14T21:02:01.537Z,14.93
2019-02-14T21:04:31.785Z,13.67
2019-02-14T21:07:01.792Z,12.30
2019-02-14T21:09:31.877Z,13.60
2019-02-14T21:12:02.311Z,13.40
2019-02-14T21:14:32.619Z,13.60
2019-02-14T21:17:02.802Z,13.37
2019-02-14T21:19:32.983Z,13.17
2019-02-14T21:22:02.869Z,14.63
2019-02-14T21:24:32.916Z,13.30
2019-02-14T21:27:03.185Z,13.57
2019-02-14T21:29:33.806Z,13.47
2019-02-14T21:32:03.876Z,11.80
2019-02-14T21:34:34.515Z,12.40
2019-02-14T21:37:04.521Z,13.83
2019-02-14T21:39:34.502Z,12.17
2019-02-14T21:42:19.881Z,12.20
2019-02-14T21:44:36.501Z,11.37
2019-02-14T21:47:07.270Z,13.20
2019-02-14T21:49:37.448Z,15.23
2019-02-14T21:52:07.750Z,14.50
2019-02-14T21:54:38.047Z,13.50
2019-02-14T21:57:08.473Z,13.40
2019-02-14T21:59:38.583Z,12.30
2019-02-14T22:02:08.812Z,13.70
2019-02-14T22:04:38.856Z,13.37
2019-02-14T22:07:09.040Z,12.60
2019-02-14T22:09:39.134Z,15.67
2019-02-14T22:12:09.932Z,16.40
2019-02-14T22:14:40.426Z,16.83
2019-02-14T22:17:10.629Z,16.53
2019-02-14T22:19:40.772Z,16.97
2019-02-14T22:22:10.947Z,17.50
2019-02-14T22:24:40.968Z,17.33
2019-02-14T22:27:11.210Z,17.67
2019-02-14T22:29:41.282Z,17.67
2019-02-14T22:32:11.482Z,16.67
2019-02-14T22:34:42.007Z,16.43
2019-02-14T22:37:11.906Z,16.27
2019-02-14T22:39:42.352Z,18.37
2019-02-14T22:42:13.017Z,17.60
2019-02-14T22:44:43.089Z,18.77
2019-02-14T22:47:13.359Z,16.53
2019-02-14T22:49:44.046Z,16.30
2019-02-14T22:52:13.926Z,16.90
2019-02-14T22:54:43.885Z,15.70
2019-02-14T22:57:16.847Z,15.68
2019-02-14T22:59:47.212Z,14.27
2019-02-14T23:02:17.602Z,14.90
2019-02-14T23:04:47.650Z,13.43
2019-02-14T23:07:17.877Z,12.83
2019-02-14T23:09:48.382Z,17.07
2019-02-14T23:12:18.712Z,13.83
2019-02-14T23:14:48.732Z,13.43
2019-02-14T23:17:18.851Z,11.90
2019-02-14T23:19:49.099Z,11.93
2019-02-14T23:22:19.109Z,12.50
2019-02-14T23:24:49.010Z,17.70
2019-02-14T23:27:19.061Z,14.43
2019-02-14T23:29:49.451Z,13.83
2019-02-14T23:32:19.517Z,20.50
2019-02-14T23:34:49.665Z,19.37
2019-02-14T23:37:19.586Z,14.80
2019-02-14T23:39:50.032Z,12.90
2019-02-14T23:42:20.073Z,14.07
2019-02-14T23:44:49.973Z,14.17
2019-02-14T23:47:19.906Z,14.13
2019-02-14T23:49:50.064Z,14.03
2019-02-14T23:52:20.381Z,13.97
2019-02-14T23:54:50.876Z,13.60
2019-02-14T23:57:20.750Z,13.97
2019-02-14T23:59:50.829Z,13.23
